Time;durP1;ratioP1;P1;durP2;ratioP2;P2;SDS_P1;SDS_P2;PMS_P1;PMS_P2;Temp;Humidity;BMP_temperature;BMP_pressure;BME280_temperature;BME280_humidity;BME280_pressure;Samples;Min_cycle;Max_cycle;Signal;HPM_P1;HPM_P2
2021/05/31 00:00:58;;;;;;;14.85;12.93;;;;;;;23.82;33.61;102178.25;5076067;28;20029;-72
2021/05/31 00:03:23;;;;;;;16.67;13.45;;;;;;;23.70;33.70;102168.84;5076092;28;20099;-73
2021/05/31 00:05:49;;;;;;;14.65;13.27;;;;;;;23.61;33.78;102173.84;5075925;28;20016;-74
2021/05/31 00:08:14;;;;;;;16.85;15.15;;;;;;;23.64;33.95;102166.72;5075790;28;20052;-71
2021/05/31 00:10:40;;;;;;;14.25;12.75;;;;;;;23.56;33.87;102164.91;5075799;28;20024;-72
2021/05/31 00:13:06;;;;;;;17.98;15.82;;;;;;;23.51;33.64;102161.25;5075709;28;20487;-72
2021/05/31 00:15:32;;;;;;;12.77;10.77;;;;;;;23.46;33.80;102155.97;5075721;28;20031;-73
2021/05/31 00:17:58;;;;;;;12.07;10.93;;;;;;;23.40;33.49;102165.81;5075396;28;20049;-72
2021/05/31 00:20:24;;;;;;;15.07;13.48;;;;;;;23.34;33.67;102156.09;5075617;28;20032;-72
2021/05/31 00:22:50;;;;;;;19.30;17.23;;;;;;;23.30;33.72;102157.22;5075566;28;20066;-72
2021/05/31 00:25:17;;;;;;;15.75;12.18;;;;;;;23.21;33.57;102149.88;5075497;28;20413;-72
2021/05/31 00:27:43;;;;;;;15.02;13.50;;;;;;;23.07;33.57;102149.56;5075461;28;20032;-73
2021/05/31 00:30:12;;;;;;;15.10;13.50;;;;;;;23.07;33.48;102159.91;5075369;28;20387;-72
2021/05/31 00:32:38;;;;;;;15.70;14.15;;;;;;;22.99;33.32;102145.00;5075423;28;20039;-71
2021/05/31 00:35:05;;;;;;;14.35;12.85;;;;;;;22.96;33.45;102146.50;5075316;28;20432;-72
2021/05/31 00:37:31;;;;;;;17.55;15.80;;;;;;;22.96;33.46;102137.34;5075197;28;20125;-72
2021/05/31 00:39:56;;;;;;;21.88;19.60;;;;;;;22.93;33.41;102146.44;5075270;28;20063;-72
2021/05/31 00:42:22;;;;;;;19.50;17.60;;;;;;;22.94;33.67;102145.28;5075237;28;20028;-72
2021/05/31 00:44:48;;;;;;;18.05;16.15;;;;;;;22.97;33.59;102145.38;5075090;28;20017;-74
2021/05/31 00:47:16;;;;;;;18.20;16.50;;;;;;;23.00;33.91;102141.03;5075078;28;20024;-72
2021/05/31 00:49:41;;;;;;;18.23;16.35;;;;;;;23.01;34.11;102139.88;5075045;28;20024;-72
2021/05/31 00:52:08;;;;;;;18.38;16.58;;;;;;;23.01;34.08;102137.06;5075118;28;20028;-72
2021/05/31 00:54:35;;;;;;;21.90;16.88;;;;;;;22.97;34.07;102123.06;5075052;28;20050;-72
2021/05/31 00:57:02;;;;;;;21.35;19.25;;;;;;;22.96;34.21;102118.66;5074968;28;20102;-72
2021/05/31 00:59:27;;;;;;;19.67;17.75;;;;;;;22.97;34.35;102116.66;5074919;28;20031;-72
2021/05/31 01:01:53;;;;;;;13.68;11.85;;;;;;;22.96;34.41;102106.69;5075011;28;20028;-72
2021/05/31 01:04:19;;;;;;;13.63;12.25;;;;;;;22.91;34.06;102112.56;5074725;28;20490;-72
2021/05/31 01:07:21;;;;;;;14.27;12.80;;;;;;;22.79;34.17;102110.66;5073300;28;20052;-71
2021/05/31 01:10:11;;;;;;;17.08;15.38;;;;;;;22.77;33.79;102113.03;5074448;28;20467;-72
2021/05/31 01:12:56;;;;;;;16.33;14.63;;;;;;;22.71;33.84;102101.34;5074685;28;20032;-72
2021/05/31 01:15:32;;;;;;;18.90;14.13;;;;;;;22.64;33.67;102103.97;5074671;28;20035;-72
2021/05/31 01:18:06;;;;;;;14.55;13.15;;;;;;;22.61;33.65;102104.69;5074387;28;20048;-72
2021/05/31 01:20:54;;;;;;;17.30;15.50;;;;;;;22.54;33.81;102098.97;5074570;28;20417;-72
2021/05/31 01:23:21;;;;;;;19.88;17.98;;;;;;;22.56;33.93;102099.41;5074311;28;20021;-72
2021/05/31 01:26:08;;;;;;;17.75;16.00;;;;;;;22.57;33.92;102097.41;5074411;28;20383;-72
2021/05/31 01:28:53;;;;;;;17.60;15.80;;;;;;;22.57;34.11;102101.00;5074371;28;20052;-71
2021/05/31 01:31:28;;;;;;;20.25;18.20;;;;;;;22.62;34.11;102095.16;5074382;28;20021;-72
2021/05/31 01:33:56;;;;;;;18.08;16.33;;;;;;;22.66;34.11;102101.63;5074390;28;20052;-72
2021/05/31 01:36:24;;;;;;;15.38;13.82;;;;;;;22.63;33.96;102096.78;5073887;28;20030;-72
2021/05/31 01:38:51;;;;;;;17.17;14.00;;;;;;;22.54;34.06;102093.38;5074164;28;20028;-71
2021/05/31 01:41:18;;;;;;;13.10;11.85;;;;;;;22.43;33.93;102092.31;5074126;28;20031;-72
2021/05/31 01:43:44;;;;;;;14.55;13.07;;;;;;;22.38;33.81;102090.63;5074075;28;20081;-72
2021/05/31 01:46:12;;;;;;;17.17;14.25;;;;;;;22.31;33.96;102092.44;5074029;28;20101;-72
2021/05/31 01:48:38;;;;;;;16.92;15.35;;;;;;;22.32;33.81;102092.06;5074079;28;20067;-71
2021/05/31 01:51:05;;;;;;;16.15;14.52;;;;;;;22.35;33.70;102087.75;5073915;28;20501;-72
2021/05/31 01:53:32;;;;;;;20.70;16.85;;;;;;;22.37;33.95;102091.00;5073887;28;20115;-72
2021/05/31 01:55:58;;;;;;;17.08;15.27;;;;;;;22.36;33.98;102084.59;5073832;28;20029;-72
2021/05/31 01:58:25;;;;;;;16.88;14.90;;;;;;;22.39;34.02;102085.88;5073881;28;20033;-71
2021/05/31 02:00:51;;;;;;;18.52;16.45;;;;;;;22.42;33.99;102080.38;5073803;28;20463;-72
2021/05/31 02:03:17;;;;;;;14.98;13.48;;;;;;;22.37;34.13;102082.66;5073784;28;20025;-72
2021/05/31 02:05:43;;;;;;;16.05;14.45;;;;;;;22.41;34.31;102077.94;5073661;28;20036;-73
2021/05/31 02:08:08;;;;;;;17.45;15.75;;;;;;;22.29;34.56;102080.81;5073652;28;20029;-72
2021/05/31 02:10:34;;;;;;;18.85;16.48;;;;;;;22.33;34.23;102076.97;5073521;28;20078;-72
2021/05/31 02:13:03;;;;;;;17.30;15.50;;;;;;;22.26;34.38;102079.59;5073580;28;20021;-71
2021/05/31 02:15:35;;;;;;;20.83;17.45;;;;;;;22.21;34.45;102071.50;5073370;28;20103;-72
2021/05/31 02:18:22;;;;;;;21.20;18.20;;;;;;;22.18;34.44;102063.88;5072321;28;20056;-72
2021/05/31 02:20:52;;;;;;;19.35;17.45;;;;;;;22.22;34.42;102069.50;5073307;28;20067;-72
2021/05/31 02:23:19;;;;;;;19.38;17.40;;;;;;;22.23;34.62;102066.41;5073314;28;20025;-72
2021/05/31 02:25:46;;;;;;;20.52;18.33;;;;;;;22.15;34.57;102070.97;5073184;28;20029;-72
2021/05/31 02:28:13;;;;;;;20.50;18.42;;;;;;;22.19;34.49;102065.50;5073233;28;20077;-71
2021/05/31 02:30:39;;;;;;;19.60;17.50;;;;;;;22.13;34.59;102064.13;5073093;28;20032;-72
2021/05/31 02:33:05;;;;;;;19.73;17.63;;;;;;;22.08;34.58;102059.66;5073127;28;20111;-72
2021/05/31 02:35:34;;;;;;;16.20;14.50;;;;;;;22.03;34.62;102056.31;5073161;28;20024;-72
2021/05/31 02:38:03;;;;;;;16.02;14.32;;;;;;;21.93;34.52;102054.88;5073060;28;20036;-71
2021/05/31 02:40:29;;;;;;;18.67;16.73;;;;;;;21.88;34.50;102057.94;5073055;28;20025;-71
2021/05/31 02:42:59;;;;;;;23.92;17.38;;;;;;;21.72;34.36;102057.91;5073013;28;20379;-71
2021/05/31 02:45:26;;;;;;;19.67;17.67;;;;;;;21.67;34.26;102054.56;5072910;28;20498;-72
2021/05/31 02:47:54;;;;;;;20.67;18.48;;;;;;;21.80;33.93;102051.38;5072991;28;20570;-72
2021/05/31 02:50:21;;;;;;;19.83;17.75;;;;;;;21.70;34.28;102042.75;5073018;28;20108;-72
2021/05/31 02:52:47;;;;;;;22.02;18.45;;;;;;;21.80;34.33;102039.44;5064875;28;20530;-72
2021/05/31 02:55:16;;;;;;;29.20;21.95;;;;;;;21.71;34.48;102039.59;5052805;28;20036;-72
2021/05/31 02:57:42;;;;;;;25.05;20.55;;;;;;;21.72;34.51;102034.84;5051420;28;20044;-74
2021/05/31 03:00:13;;;;;;;23.50;21.10;;;;;;;21.72;34.67;102034.84;5052851;28;20498;-73
2021/05/31 03:02:39;;;;;;;15.88;14.27;;;;;;;21.72;34.49;102030.09;5052762;28;20028;-72
2021/05/31 03:05:07;;;;;;;17.35;15.55;;;;;;;21.60;34.49;102030.97;5052668;28;20472;-72
2021/05/31 03:07:33;;;;;;;18.67;16.77;;;;;;;21.49;34.47;102031.88;5052619;28;20035;-71
2021/05/31 03:09:58;;;;;;;19.85;17.70;;;;;;;21.46;34.33;102024.22;5052608;28;20395;-72
2021/05/31 03:12:24;;;;;;;18.73;16.83;;;;;;;21.45;34.29;102025.38;5052514;28;20029;-71
2021/05/31 03:14:51;;;;;;;18.33;16.20;;;;;;;21.48;34.19;102022.72;5052050;28;20021;-72
2021/05/31 03:17:18;;;;;;;27.52;17.50;;;;;;;21.33;34.53;102023.50;5051147;28;20179;-72
2021/05/31 03:19:43;;;;;;;22.40;20.15;;;;;;;21.43;34.40;102028.53;5052583;28;20064;-71
2021/05/31 03:22:09;;;;;;;25.70;23.10;;;;;;;21.38;34.65;102026.00;5052544;28;20701;-72
2021/05/31 03:24:35;;;;;;;23.90;21.40;;;;;;;21.48;34.55;102025.50;5052283;28;20029;-72
2021/05/31 03:27:00;;;;;;;23.00;20.70;;;;;;;21.50;34.75;102023.16;5052733;28;20377;-72
2021/05/31 03:29:26;;;;;;;23.20;20.05;;;;;;;21.53;34.72;102016.88;5052202;28;20044;-72
2021/05/31 03:31:51;;;;;;;22.05;19.85;;;;;;;21.59;34.77;102015.44;5052482;28;20025;-72
2021/05/31 03:34:17;;;;;;;20.73;17.85;;;;;;;21.59;34.81;102018.22;5052403;28;20029;-74
2021/05/31 03:36:43;;;;;;;22.27;18.52;;;;;;;21.59;34.86;102014.66;5052278;28;20037;-72
2021/05/31 03:39:08;;;;;;;20.95;18.63;;;;;;;21.62;34.77;102010.38;5051140;28;20033;-72
2021/05/31 03:41:34;;;;;;;23.33;18.85;;;;;;;21.64;34.66;102016.38;5052350;28;20025;-72
2021/05/31 03:44:00;;;;;;;20.17;18.08;;;;;;;21.63;34.72;102014.75;5052526;28;20029;-72
2021/05/31 03:46:26;;;;;;;19.75;17.65;;;;;;;21.60;34.78;102010.69;5052293;28;20395;-72
2021/05/31 03:48:52;;;;;;;21.70;17.75;;;;;;;21.57;34.80;102008.63;5052197;28;20025;-71
2021/05/31 03:51:19;;;;;;;21.83;17.02;;;;;;;21.52;34.62;102009.69;5052200;28;20480;-72
2021/05/31 03:53:45;;;;;;;23.73;17.98;;;;;;;21.42;34.80;102009.44;5052169;28;20411;-72
2021/05/31 03:56:11;;;;;;;22.25;18.25;;;;;;;21.46;34.72;102013.94;5051984;28;20021;-72
2021/05/31 03:58:38;;;;;;;23.02;18.17;;;;;;;21.43;34.79;102009.06;5052058;28;20135;-71
2021/05/31 04:01:04;;;;;;;25.08;19.15;;;;;;;21.37;34.63;102006.91;5052061;28;20025;-72
2021/05/31 04:03:30;;;;;;;22.98;19.48;;;;;;;21.29;34.62;102006.72;5052060;28;20078;-72
2021/05/31 04:06:06;;;;;;;22.77;20.08;;;;;;;21.27;34.79;102006.25;5052082;28;20562;-72
2021/05/31 04:14:07;;;;;;;19.38;17.20;;;;;;;21.11;34.61;101999.81;5052474;28;20454;-72
2021/05/31 04:16:34;;;;;;;23.17;20.02;;;;;;;21.11;34.67;101996.25;5051684;28;20049;-72
2021/05/31 04:19:00;;;;;;;24.33;18.73;;;;;;;21.10;34.71;101989.88;5051806;28;20454;-72
2021/05/31 04:21:27;;;;;;;31.73;20.65;;;;;;;21.14;34.67;101992.75;5051979;28;20414;-72
2021/05/31 04:23:53;;;;;;;27.45;21.73;;;;;;;21.18;34.77;101988.91;5051897;28;20361;-72
2021/05/31 04:26:19;;;;;;;34.55;23.30;;;;;;;21.19;34.72;101984.16;5052138;28;20026;-71
2021/05/31 04:28:45;;;;;;;29.10;22.60;;;;;;;21.16;34.86;101984.84;5051749;28;20096;-71
2021/05/31 04:31:11;;;;;;;31.50;22.55;;;;;;;21.20;34.79;101975.47;5051603;28;20104;-71
2021/05/31 04:33:37;;;;;;;27.20;20.75;;;;;;;21.22;34.81;101977.88;5051873;28;20021;-73
2021/05/31 04:36:03;;;;;;;32.00;21.00;;;;;;;21.16;34.91;101979.28;5051764;28;20037;-71
2021/05/31 04:38:29;;;;;;;29.35;20.98;;;;;;;21.17;35.06;101980.94;5052012;28;20056;-72
2021/05/31 04:40:54;;;;;;;30.30;19.73;;;;;;;21.13;35.26;101975.25;5053702;28;20056;-72
2021/05/31 04:43:20;;;;;;;24.40;21.33;;;;;;;21.29;34.86;101984.47;5055413;28;20471;-72
2021/05/31 04:45:47;;;;;;;25.40;20.52;;;;;;;21.28;34.73;101968.94;5055337;28;20021;-72
2021/05/31 04:48:12;;;;;;;31.15;23.45;;;;;;;21.30;35.05;101972.19;5055343;28;20422;-74
2021/05/31 04:50:38;;;;;;;35.60;25.63;;;;;;;21.21;35.18;101979.03;5055276;28;20032;-72
2021/05/31 04:53:03;;;;;;;32.30;23.85;;;;;;;21.33;35.12;101977.03;5055122;28;20024;-71
2021/05/31 04:55:29;;;;;;;29.75;24.83;;;;;;;21.40;34.86;101976.44;5055092;28;20028;-72
2021/05/31 04:57:55;;;;;;;26.85;22.30;;;;;;;21.45;35.11;101978.13;5054838;28;20032;-71
2021/05/31 05:00:20;;;;;;;26.05;21.40;;;;;;;21.37;35.27;101977.13;5055025;28;20033;-72
2021/05/31 05:02:46;;;;;;;24.10;21.50;;;;;;;21.39;35.10;101971.22;5055036;28;20031;-71
2021/05/31 05:05:13;;;;;;;26.67;23.77;;;;;;;21.46;35.01;101971.38;5054898;28;20490;-72
2021/05/31 05:07:48;;;;;;;28.00;23.38;;;;;;;21.52;35.15;101970.78;5054899;28;20113;-72
2021/05/31 05:10:19;;;;;;;31.85;24.85;;;;;;;21.65;35.14;101971.50;5054763;28;20467;-72
2021/05/31 05:12:46;;;;;;;42.05;27.83;;;;;;;21.66;35.28;101969.53;5054951;28;20025;-72
2021/05/31 05:15:13;;;;;;;44.60;31.02;;;;;;;21.74;35.32;101968.53;5054669;28;20025;-72
2021/05/31 05:17:38;;;;;;;92.22;37.05;;;;;;;21.64;35.71;101969.09;5054347;28;20415;-72
2021/05/31 05:20:06;;;;;;;47.25;32.28;;;;;;;21.79;35.53;101968.28;5054607;28;20108;-72
2021/05/31 05:22:32;;;;;;;31.50;26.40;;;;;;;21.90;35.56;101963.75;5054569;28;20029;-74
2021/05/31 05:24:58;;;;;;;32.05;28.05;;;;;;;22.00;35.53;101960.44;5054630;28;20407;-71
2021/05/31 05:27:24;;;;;;;31.30;28.00;;;;;;;22.05;35.33;101954.59;5054609;28;20112;-71
2021/05/31 05:29:50;;;;;;;33.50;27.58;;;;;;;21.99;36.08;101947.69;5054374;28;20422;-72
2021/05/31 05:32:16;;;;;;;38.08;31.13;;;;;;;22.12;36.12;101943.66;5054457;28;20032;-72
2021/05/31 05:34:41;;;;;;;35.85;30.63;;;;;;;22.21;36.27;101949.00;5054346;28;20029;-72
2021/05/31 05:37:14;;;;;;;35.33;30.15;;;;;;;22.36;36.42;101945.38;5054190;28;20498;-72
2021/05/31 05:40:02;;;;;;;33.30;29.75;;;;;;;22.52;36.21;101944.50;5054222;28;20104;-72
2021/05/31 05:45:17;;;;;;;42.42;31.92;;;;;;;22.60;36.55;101938.75;5054182;28;20079;-73
2021/05/31 05:47:47;;;;;;;43.17;31.27;;;;;;;22.87;36.59;101933.31;5053910;28;20029;-72
2021/05/31 05:50:16;;;;;;;42.53;32.78;;;;;;;23.13;36.52;101935.44;5054010;28;20029;-72
2021/05/31 05:52:42;;;;;;;34.65;29.63;;;;;;;23.50;36.13;101922.53;5053902;28;20027;-72
2021/05/31 05:55:09;;;;;;;36.80;29.27;;;;;;;23.80;36.11;101922.66;5053852;28;20056;-72
2021/05/31 05:57:36;;;;;;;33.17;27.63;;;;;;;23.97;36.21;101929.69;5053875;28;20021;-72
2021/05/31 06:00:06;;;;;;;32.10;25.70;;;;;;;24.15;35.86;101929.13;5053768;28;20048;-74
2021/05/31 06:02:32;;;;;;;29.58;26.40;;;;;;;24.34;35.57;101929.84;5053680;28;20059;-73
2021/05/31 06:04:57;;;;;;;29.08;25.98;;;;;;;24.34;35.56;101934.63;5053902;28;20025;-73
2021/05/31 06:07:23;;;;;;;47.80;28.10;;;;;;;24.35;35.87;101934.25;5053641;28;20033;-71
2021/05/31 06:09:48;;;;;;;31.77;26.02;;;;;;;24.49;35.94;101933.63;5053521;28;20460;-71
2021/05/31 06:12:14;;;;;;;29.33;26.25;;;;;;;24.56;35.91;101928.13;5053540;28;20526;-70
2021/05/31 06:14:40;;;;;;;35.13;26.40;;;;;;;24.56;36.04;101941.28;5053468;28;20032;-71
2021/05/31 06:17:05;;;;;;;34.05;26.77;;;;;;;24.61;36.43;101940.94;5052978;28;20095;-71
2021/05/31 06:19:31;;;;;;;32.53;26.90;;;;;;;24.80;36.23;101940.78;5061760;28;20070;-71
2021/05/31 06:21:56;;;;;;;28.73;25.70;;;;;;;25.02;36.25;101935.44;5071494;28;20383;-72
2021/05/31 06:24:22;;;;;;;31.77;27.38;;;;;;;25.10;36.06;101946.34;5071296;28;20025;-72
2021/05/31 06:26:48;;;;;;;28.20;25.33;;;;;;;25.26;36.41;101936.91;5071621;28;20056;-73
2021/05/31 06:29:13;;;;;;;39.10;29.80;;;;;;;25.19;36.88;101932.06;5071459;28;20020;-72
2021/05/31 06:31:39;;;;;;;30.33;27.15;;;;;;;25.38;36.44;101925.41;5073841;28;20088;-73
2021/05/31 06:34:04;;;;;;;34.42;26.23;;;;;;;25.65;36.07;101929.66;5073215;28;20469;-73
2021/05/31 06:36:32;;;;;;;36.25;26.90;;;;;;;25.64;35.93;101930.06;5072582;28;20482;-71
2021/05/31 06:38:58;;;;;;;33.58;24.88;;;;;;;25.64;35.99;101927.25;5072823;28;20028;-72
2021/05/31 06:41:23;;;;;;;32.15;27.23;;;;;;;25.87;35.65;101921.47;5072659;28;20803;-73
2021/05/31 06:43:49;;;;;;;27.38;24.48;;;;;;;26.13;35.31;101934.41;5071560;28;20383;-72
2021/05/31 06:46:14;;;;;;;32.72;27.02;;;;;;;26.13;35.67;101926.81;5072000;28;20095;-71
2021/05/31 06:48:40;;;;;;;28.42;25.42;;;;;;;26.29;35.41;101932.09;5071907;28;20028;-74
2021/05/31 06:51:06;;;;;;;34.83;26.90;;;;;;;26.30;35.53;101942.13;5072105;28;20075;-73
2021/05/31 06:53:32;;;;;;;28.63;25.60;;;;;;;26.51;35.11;101928.22;5072838;28;20055;-75
2021/05/31 06:55:58;;;;;;;29.23;26.10;;;;;;;26.52;35.09;101938.25;5071545;28;20368;-74
2021/05/31 06:58:23;;;;;;;30.15;26.65;;;;;;;26.76;34.89;101928.34;5072787;28;20098;-72
2021/05/31 07:00:50;;;;;;;28.40;25.35;;;;;;;26.81;34.74;101932.75;5066467;28;20024;-73
2021/05/31 07:03:15;;;;;;;32.67;25.48;;;;;;;26.89;34.36;101931.56;5069963;28;20561;-73
2021/05/31 07:05:41;;;;;;;28.23;24.85;;;;;;;26.88;34.55;101932.75;5072686;28;20133;-73
2021/05/31 07:08:07;;;;;;;28.13;23.77;;;;;;;26.92;34.64;101924.38;5072716;28;20021;-73
2021/05/31 07:10:32;;;;;;;27.52;22.05;;;;;;;26.97;34.49;101932.38;5072576;28;20028;-73
2021/05/31 07:13:00;;;;;;;36.42;24.77;;;;;;;27.02;34.46;101927.19;5060467;28;20028;-73
2021/05/31 07:15:26;;;;;;;30.05;23.38;;;;;;;27.16;34.18;101923.66;5054849;28;20020;-73
2021/05/31 07:17:52;;;;;;;25.17;20.92;;;;;;;27.18;34.48;101923.25;5055775;28;20083;-73
2021/05/31 07:20:21;;;;;;;23.95;21.55;;;;;;;27.43;33.89;101912.03;5055119;28;20081;-74
2021/05/31 07:22:48;;;;;;;28.48;23.75;;;;;;;27.56;33.69;101919.66;5062888;28;20021;-74
2021/05/31 07:25:16;;;;;;;34.72;23.35;;;;;;;27.54;33.93;101921.25;5072341;28;20082;-75
2021/05/31 07:27:43;;;;;;;28.42;22.90;;;;;;;27.67;33.77;101925.31;5072196;28;20024;-73
2021/05/31 07:30:09;;;;;;;26.45;23.63;;;;;;;27.70;33.66;101924.50;5072701;28;20379;-73
2021/05/31 07:32:36;;;;;;;26.98;24.13;;;;;;;27.85;33.49;101922.47;5070429;28;20443;-75
2021/05/31 07:35:04;;;;;;;27.65;20.90;;;;;;;28.03;33.42;101916.81;5071525;28;20489;-76
2021/05/31 07:37:30;;;;;;;23.10;19.50;;;;;;;28.09;33.59;101918.78;5071242;28;20036;-76
2021/05/31 07:39:56;;;;;;;19.13;17.27;;;;;;;28.20;33.42;101915.97;5071358;28;20028;-73
2021/05/31 07:42:21;;;;;;;19.52;17.52;;;;;;;28.29;33.48;101909.91;5071255;28;20019;-73
2021/05/31 07:44:47;;;;;;;41.67;18.67;;;;;;;28.31;33.14;101916.75;5071186;28;20024;-73
2021/05/31 07:47:12;;;;;;;21.02;14.85;;;;;;;28.39;33.07;101911.91;5071264;28;20103;-72
2021/05/31 07:49:38;;;;;;;23.38;15.52;;;;;;;28.49;32.81;101902.66;5059553;28;20029;-72
2021/05/31 07:52:20;;;;;;;189.40;34.45;;;;;;;28.46;32.93;101897.81;5054741;28;20027;-72
2021/05/31 07:54:49;;;;;;;18.65;13.32;;;;;;;28.67;32.73;101896.94;5054732;28;20122;-72
2021/05/31 07:57:15;;;;;;;15.50;13.57;;;;;;;28.68;32.66;101895.72;5055255;28;20028;-72
2021/05/31 07:59:41;;;;;;;15.85;13.27;;;;;;;28.74;32.51;101896.88;5055672;28;20078;-73
2021/05/31 08:02:07;;;;;;;26.25;12.15;;;;;;;28.81;32.15;101894.03;5055139;28;20146;-72
2021/05/31 08:04:34;;;;;;;14.95;11.82;;;;;;;28.80;32.05;101895.25;5055062;28;20035;-72
2021/05/31 08:06:59;;;;;;;16.13;11.27;;;;;;;28.59;31.97;101893.34;5054120;28;20078;-72
2021/05/31 08:09:25;;;;;;;16.45;10.95;;;;;;;28.75;31.64;101895.69;5054611;28;20047;-72
2021/05/31 08:11:51;;;;;;;14.52;10.27;;;;;;;28.82;31.19;101887.19;5055351;28;20582;-72
2021/05/31 08:14:17;;;;;;;18.08;10.80;;;;;;;28.90;31.23;101887.94;5055238;28;20968;-72
2021/05/31 08:16:42;;;;;;;12.80;9.43;;;;;;;29.07;30.98;101898.31;5058069;28;20425;-72
2021/05/31 08:19:08;;;;;;;38.95;12.32;;;;;;;29.16;30.66;101884.56;5059237;28;20032;-71
2021/05/31 08:21:33;;;;;;;17.02;8.23;;;;;;;29.22;30.99;101877.28;5058874;28;20790;-71
2021/05/31 08:23:59;;;;;;;10.30;7.53;;;;;;;29.28;30.25;101875.63;5059684;28;20152;-72
2021/05/31 08:26:25;;;;;;;7.78;6.63;;;;;;;29.48;29.93;101881.50;5058213;28;20028;-72
2021/05/31 08:28:51;;;;;;;12.43;8.75;;;;;;;29.54;29.71;101881.84;5058400;28;20032;-72
2021/05/31 08:31:17;;;;;;;19.50;9.00;;;;;;;29.64;29.18;101878.16;5058982;28;20449;-72
2021/05/31 08:33:42;;;;;;;17.83;9.80;;;;;;;29.88;28.79;101870.66;5057977;28;20033;-72
2021/05/31 08:36:08;;;;;;;12.43;8.85;;;;;;;30.25;28.25;101878.31;5057536;28;20029;-73
2021/05/31 08:38:35;;;;;;;11.73;6.45;;;;;;;30.14;28.09;101863.53;5071485;28;20174;-72
2021/05/31 08:41:01;;;;;;;16.80;7.80;;;;;;;30.30;27.59;101857.28;5074348;28;20485;-71
2021/05/31 08:43:27;;;;;;;10.32;6.18;;;;;;;30.19;27.33;101865.91;5072666;28;20374;-72
2021/05/31 08:45:54;;;;;;;9.70;6.93;;;;;;;30.42;27.23;101855.94;5074138;28;20477;-72
2021/05/31 08:48:21;;;;;;;17.48;8.93;;;;;;;30.43;27.62;101854.72;5074101;28;20052;-71
2021/05/31 08:50:47;;;;;;;10.30;8.60;;;;;;;30.43;28.16;101852.69;5073909;28;20033;-71
2021/05/31 08:53:13;;;;;;;16.27;10.73;;;;;;;30.29;28.45;101859.31;5074115;28;20035;-72
2021/05/31 08:55:39;;;;;;;10.93;9.63;;;;;;;30.43;28.03;101846.25;5071344;28;20100;-71
2021/05/31 08:58:05;;;;;;;13.85;10.55;;;;;;;29.89;28.97;101848.91;5073918;28;20030;-72
2021/05/31 09:00:36;;;;;;;14.05;10.48;;;;;;;30.27;28.85;101850.50;5073923;28;20082;-72
2021/05/31 09:03:10;;;;;;;15.95;11.75;;;;;;;30.26;28.50;101842.47;5071654;28;20044;-72
2021/05/31 09:05:40;;;;;;;13.70;12.27;;;;;;;30.14;28.63;101845.81;5073895;28;20047;-72
2021/05/31 09:08:13;;;;;;;14.52;13.02;;;;;;;29.94;28.63;101840.03;5073957;28;20128;-72
2021/05/31 09:10:44;;;;;;;13.82;12.43;;;;;;;29.52;28.85;101844.88;5071605;28;20099;-72
2021/05/31 09:13:11;;;;;;;15.48;13.60;;;;;;;29.82;28.67;101842.16;5073009;28;20028;-71
2021/05/31 09:15:38;;;;;;;16.17;14.15;;;;;;;30.03;28.83;101841.09;5073443;28;20445;-71
2021/05/31 09:18:04;;;;;;;18.23;14.40;;;;;;;29.94;28.74;101842.84;5074351;28;20048;-72
2021/05/31 09:20:30;;;;;;;15.88;14.02;;;;;;;29.72;28.81;101842.28;5074440;28;20027;-73
2021/05/31 09:22:56;;;;;;;22.80;15.35;;;;;;;29.75;28.92;101836.59;5074249;28;20021;-73
2021/05/31 09:25:33;;;;;;;20.10;14.65;;;;;;;29.87;29.00;101837.28;5073434;28;20020;-72
2021/05/31 09:28:03;;;;;;;14.55;13.05;;;;;;;29.81;29.35;101839.75;5070984;28;20021;-72
2021/05/31 09:30:45;;;;;;;15.52;13.63;;;;;;;30.04;28.71;101831.44;5073390;28;20060;-72
2021/05/31 09:33:13;;;;;;;16.02;14.32;;;;;;;30.01;28.61;101834.28;5072180;28;20035;-72
2021/05/31 09:35:41;;;;;;;18.30;14.48;;;;;;;30.32;28.39;101833.13;5073328;28;20055;-73
2021/05/31 09:38:08;;;;;;;23.40;14.73;;;;;;;30.24;28.92;101828.81;5072875;28;20032;-72
2021/05/31 09:40:34;;;;;;;16.45;14.68;;;;;;;30.01;29.25;101834.28;5073224;28;20111;-71
2021/05/31 09:43:03;;;;;;;16.35;14.60;;;;;;;29.88;29.40;101833.25;5071471;28;20016;-72
2021/05/31 09:45:29;;;;;;;19.95;15.98;;;;;;;29.99;29.24;101833.91;5073084;28;20103;-73
2021/05/31 09:48:03;;;;;;;15.45;13.23;;;;;;;29.66;30.03;101827.03;5073059;28;20042;-73
2021/05/31 09:50:31;;;;;;;47.38;16.25;;;;;;;30.00;29.07;101829.84;5072542;28;20017;-74
2021/05/31 09:53:11;;;;;;;22.48;14.68;;;;;;;29.51;30.08;101826.38;5072159;28;20024;-73
2021/05/31 09:55:46;;;;;;;18.15;14.43;;;;;;;29.62;30.00;101829.09;5072072;28;20099;-73
2021/05/31 09:58:14;;;;;;;16.33;14.38;;;;;;;29.64;30.00;101824.66;5070558;28;20028;-73
2021/05/31 10:00:45;;;;;;;15.93;14.07;;;;;;;29.70;29.88;101827.78;5071927;28;20446;-73
2021/05/31 10:11:03;;;;;;;15.65;12.43;;;;;;;29.61;30.47;101816.22;5073489;28;20448;-73
2021/05/31 10:13:30;;;;;;;31.95;12.32;;;;;;;29.60;30.73;101811.81;5072008;28;20020;-73
2021/05/31 10:15:57;;;;;;;11.93;9.55;;;;;;;29.52;30.74;101809.06;5073599;28;20050;-73
2021/05/31 10:18:25;;;;;;;10.82;9.45;;;;;;;29.63;30.28;101782.84;5073211;28;20058;-73
2021/05/31 10:20:51;;;;;;;13.52;9.20;;;;;;;29.77;30.53;101810.81;5073427;28;20112;-73
2021/05/31 10:23:18;;;;;;;9.48;7.93;;;;;;;29.63;30.72;101811.00;5073005;28;20095;-74
2021/05/31 10:25:55;;;;;;;13.35;8.75;;;;;;;29.77;30.18;101805.97;5073071;28;20393;-73
2021/05/31 10:28:24;;;;;;;9.23;8.10;;;;;;;29.62;30.77;101795.28;5073417;28;20021;-73
2021/05/31 10:30:53;;;;;;;12.02;9.73;;;;;;;29.51;30.61;101792.59;5073410;28;20025;-73
2021/05/31 10:33:21;;;;;;;12.67;10.20;;;;;;;29.39;30.83;101782.63;5073220;28;20095;-73
2021/05/31 10:35:51;;;;;;;15.18;10.40;;;;;;;29.13;31.23;101789.72;5071835;28;20391;-73
2021/05/31 10:38:20;;;;;;;13.88;8.98;;;;;;;29.33;30.93;101789.94;5072543;28;20024;-73
2021/05/31 10:40:48;;;;;;;12.10;10.45;;;;;;;29.03;31.62;101787.81;5073285;28;20028;-74
2021/05/31 10:43:19;;;;;;;12.40;9.05;;;;;;;29.29;30.86;101781.53;5071539;28;20024;-73
2021/05/31 10:45:46;;;;;;;13.18;9.40;;;;;;;29.01;31.43;101776.94;5072433;28;20031;-75
2021/05/31 10:48:15;;;;;;;10.93;8.35;;;;;;;29.20;31.00;101784.03;5071950;28;20016;-73
2021/05/31 10:50:45;;;;;;;12.50;8.63;;;;;;;29.22;31.18;101775.97;5071814;28;20113;-73
2021/05/31 10:53:41;;;;;;;15.18;8.27;;;;;;;29.26;30.84;101773.94;5071803;28;20352;-73
2021/05/31 10:56:22;;;;;;;24.23;9.35;;;;;;;29.14;31.25;101768.81;5069294;28;20047;-73
2021/05/31 10:58:52;;;;;;;14.25;10.27;;;;;;;29.43;30.72;101768.53;5071723;28;20104;-75
2021/05/31 11:01:22;;;;;;;;;;;;;;;29.14;31.34;101771.63;5069853;28;20013;-73
2021/05/31 11:04:16;;;;;;;11.30;8.93;;;;;;;29.18;31.14;101763.16;5071738;28;19913;-75
2021/05/31 11:06:46;;;;;;;16.33;10.82;;;;;;;29.20;31.50;101758.69;5063538;28;20032;-73
2021/05/31 11:09:11;;;;;;;;;;;;;;;29.20;31.76;101750.25;5072114;28;20028;-73
2021/05/31 11:11:42;;;;;;;15.80;9.48;;;;;;;29.25;31.59;101757.47;5071371;28;20030;-73
2021/05/31 11:14:09;;;;;;;16.00;9.70;;;;;;;29.22;31.59;101753.44;5069917;28;20090;-75
2021/05/31 11:16:53;;;;;;;12.93;9.73;;;;;;;29.33;31.26;101749.75;5071184;28;20025;-73
2021/05/31 11:19:34;;;;;;;11.35;9.23;;;;;;;29.52;31.48;101749.16;5069329;28;20521;-74
2021/05/31 11:21:59;;;;;;;13.10;9.10;;;;;;;29.60;31.29;101730.16;5069384;28;20033;-73
2021/05/31 11:24:26;;;;;;;13.13;9.18;;;;;;;30.12;30.42;101739.16;5071464;28;20078;-72
2021/05/31 11:26:51;;;;;;;17.73;8.93;;;;;;;30.28;30.39;101733.69;5064734;28;20040;-74
2021/05/31 11:29:17;;;;;;;16.73;9.20;;;;;;;30.39;30.31;101723.06;5058990;28;20029;-73
2021/05/31 11:31:45;;;;;;;18.10;9.13;;;;;;;30.55;29.78;101727.25;5070565;28;20111;-74